createdAt,value
2023-01-08T00:01:31.401Z,20.80
2023-01-08T00:03:58.475Z,22.52
2023-01-08T00:06:25.594Z,21.45
2023-01-08T00:08:52.816Z,21.40
2023-01-08T00:11:19.941Z,22.63
2023-01-08T00:13:47.046Z,21.17
2023-01-08T00:16:17.973Z,22.70
2023-01-08T00:18:46.713Z,20.95
2023-01-08T00:21:14.385Z,20.50
2023-01-08T00:23:41.412Z,21.58
2023-01-08T00:26:11.057Z,20.85
2023-01-08T00:28:39.680Z,23.13
2023-01-08T00:31:12.907Z,20.67
2023-01-08T00:33:41.391Z,22.58
2023-01-08T00:36:43.951Z,23.05
2023-01-08T00:39:09.179Z,20.00
2023-01-08T00:41:36.509Z,25.17
2023-01-08T00:44:03.608Z,23.35
2023-01-08T00:46:30.848Z,21.05
2023-01-08T00:48:57.882Z,25.35
2023-01-08T00:51:26.209Z,23.98
2023-01-08T00:53:53.659Z,23.33
2023-01-08T00:56:20.572Z,20.77
2023-01-08T00:58:47.738Z,22.88
2023-01-08T01:01:15.843Z,23.95
2023-01-08T01:03:43.564Z,25.80
2023-01-08T01:06:13.262Z,22.55
2023-01-08T01:08:41.159Z,24.55
2023-01-08T01:11:28.361Z,26.73
2023-01-08T01:13:57.144Z,21.95
2023-01-08T01:16:25.345Z,27.52
2023-01-08T01:18:53.556Z,24.52
2023-01-08T01:21:26.265Z,21.83
2023-01-08T01:23:56.942Z,19.80
2023-01-08T01:26:25.530Z,29.00
2023-01-08T01:28:55.982Z,21.83
2023-01-08T01:31:25.227Z,21.88
2023-01-08T01:33:52.933Z,22.80
2023-01-08T01:36:24.314Z,23.58
2023-01-08T01:38:55.537Z,22.80
2023-01-08T01:41:29.242Z,21.38
2023-01-08T01:44:00.579Z,20.42
2023-01-08T01:46:40.506Z,20.25
2023-01-08T01:49:14.349Z,25.23
2023-01-08T01:52:00.908Z,20.60
2023-01-08T01:54:31.150Z,20.75
2023-01-08T01:57:00.922Z,21.33
2023-01-08T02:00:15.262Z,22.67
2023-01-08T02:02:42.984Z,22.08
2023-01-08T02:05:13.103Z,21.35
2023-01-08T02:08:08.092Z,19.55
2023-01-08T02:10:58.021Z,20.38
2023-01-08T02:13:49.157Z,20.38
2023-01-08T02:16:45.715Z,23.92
2023-01-08T02:19:42.549Z,24.58
2023-01-08T02:22:46.202Z,21.35
2023-01-08T02:28:01.720Z,22.55
2023-01-08T02:30:30.313Z,22.23
2023-01-08T02:32:57.419Z,21.10
2023-01-08T02:35:26.849Z,21.58
2023-01-08T02:37:53.996Z,20.27
2023-01-08T02:40:44.669Z,22.50
2023-01-08T02:43:20.831Z,23.30
2023-01-08T02:45:58.362Z,23.10
2023-01-08T02:48:46.169Z,24.88
2023-01-08T02:51:30.769Z,20.67
2023-01-08T02:54:04.644Z,20.17
2023-01-08T02:56:37.139Z,22.88
2023-01-08T03:01:35.987Z,25.42
2023-01-08T03:04:36.195Z,23.88
2023-01-08T03:07:03.784Z,28.60
2023-01-08T03:09:31.465Z,24.75
2023-01-08T03:12:19.235Z,27.92
2023-01-08T03:15:04.377Z,23.75
2023-01-08T03:17:36.833Z,26.23
2023-01-08T03:20:13.282Z,23.10
2023-01-08T03:22:45.076Z,22.98
2023-01-08T03:25:15.192Z,23.75
2023-01-08T03:27:51.145Z,22.45
2023-01-08T03:30:20.972Z,28.88
2023-01-08T03:32:51.003Z,25.50
2023-01-08T03:35:23.316Z,27.70
2023-01-08T03:40:40.346Z,27.15
2023-01-08T03:43:07.556Z,30.77
2023-01-08T03:45:38.851Z,26.65
2023-01-08T03:48:09.977Z,27.73
2023-01-08T03:50:37.929Z,26.77
2023-01-08T03:53:04.954Z,31.17
2023-01-08T03:55:32.151Z,26.38
2023-01-08T03:57:59.201Z,29.75
2023-01-08T04:00:26.419Z,30.67
2023-01-08T04:02:53.451Z,28.17
2023-01-08T04:05:20.440Z,28.17
2023-01-08T04:07:47.336Z,28.45
2023-01-08T04:10:14.303Z,28.67
2023-01-08T04:12:43.563Z,26.45
2023-01-08T04:15:11.138Z,31.70
2023-01-08T04:17:38.113Z,31.60
2023-01-08T04:20:06.241Z,28.23
2023-01-08T04:22:33.324Z,28.67
2023-01-08T04:25:00.246Z,28.42
2023-01-08T04:27:27.402Z,26.77
2023-01-08T04:29:54.348Z,29.45
2023-01-08T04:32:21.315Z,27.48
2023-01-08T04:34:48.313Z,26.98
2023-01-08T04:37:15.447Z,27.10
2023-01-08T04:39:42.445Z,29.35
2023-01-08T04:42:09.352Z,28.27
2023-01-08T04:44:36.352Z,30.52
2023-01-08T04:47:03.385Z,29.58
2023-01-08T04:49:30.827Z,27.55
2023-01-08T04:51:57.753Z,29.67
2023-01-08T04:54:24.780Z,29.90
2023-01-08T04:56:52.261Z,28.60
2023-01-08T04:59:19.326Z,30.95
2023-01-08T05:01:46.657Z,29.73
2023-01-08T05:04:13.623Z,26.90
2023-01-08T05:06:40.563Z,29.90
2023-01-08T05:09:07.553Z,29.40
2023-01-08T05:11:39.677Z,25.48
2023-01-08T05:14:06.654Z,30.02
2023-01-08T05:16:33.831Z,27.80
2023-01-08T05:19:00.821Z,30.38
2023-01-08T05:21:38.183Z,27.45
2023-01-08T05:24:05.624Z,30.02
2023-01-08T05:26:36.155Z,27.50
2023-01-08T05:29:03.612Z,32.45
2023-01-08T05:31:30.701Z,27.23
2023-01-08T05:33:59.378Z,28.25
2023-01-08T05:36:26.397Z,31.02
2023-01-08T05:38:53.426Z,27.63
2023-01-08T05:41:20.340Z,30.73
2023-01-08T05:43:47.261Z,29.90
2023-01-08T05:46:14.285Z,30.75
2023-01-08T05:48:42.803Z,29.65
2023-01-08T05:51:12.605Z,33.15
2023-01-08T05:53:39.570Z,31.10
2023-01-08T05:56:10.496Z,32.10
2023-01-08T05:58:38.249Z,32.10
2023-01-08T06:01:16.219Z,30.92
2023-01-08T06:03:43.639Z,29.17
2023-01-08T06:06:11.418Z,31.33
2023-01-08T06:08:39.063Z,28.83
2023-01-08T06:11:08.641Z,32.72
2023-01-08T06:13:37.868Z,33.97
2023-01-08T06:16:05.416Z,30.55
2023-01-08T06:18:32.991Z,31.60
2023-01-08T06:21:00.137Z,39.45
2023-01-08T06:23:27.229Z,29.60
2023-01-08T06:25:56.705Z,31.73
2023-01-08T06:28:24.409Z,35.22
2023-01-08T06:30:51.747Z,33.88
2023-01-08T06:33:21.324Z,34.28
2023-01-08T06:35:48.964Z,34.95
2023-01-08T06:38:19.268Z,34.35
2023-01-08T06:40:48.943Z,36.00
2023-01-08T06:43:16.162Z,35.35
2023-01-08T06:45:43.196Z,35.40
2023-01-08T06:48:10.276Z,33.75
2023-01-08T06:50:37.348Z,34.88
2023-01-08T06:53:04.785Z,36.03
2023-01-08T06:55:31.836Z,32.40
2023-01-08T06:57:59.449Z,33.65
2023-01-08T07:00:27.338Z,32.67
2023-01-08T07:02:55.356Z,32.63
2023-01-08T07:05:23.097Z,32.03
2023-01-08T07:07:50.848Z,35.25
2023-01-08T07:10:19.896Z,29.65
2023-01-08T07:12:47.481Z,32.47
2023-01-08T07:15:15.808Z,26.77
2023-01-08T07:17:42.847Z,35.38
2023-01-08T07:20:10.961Z,32.53
2023-01-08T07:22:38.116Z,32.67
2023-01-08T07:25:06.128Z,33.88
2023-01-08T07:27:33.184Z,33.88
2023-01-08T07:30:00.378Z,30.95
2023-01-08T07:32:27.529Z,29.67
2023-01-08T07:34:54.768Z,31.90
2023-01-08T07:37:21.991Z,33.08
2023-01-08T07:39:49.129Z,33.65
2023-01-08T07:42:16.238Z,28.75
2023-01-08T07:44:43.203Z,31.77
2023-01-08T07:47:10.677Z,32.45
2023-01-08T07:49:38.213Z,28.58
2023-01-08T07:52:05.310Z,30.30
2023-01-08T07:54:32.575Z,33.22
2023-01-08T07:56:59.516Z,29.00
2023-01-08T07:59:26.564Z,29.08
2023-01-08T08:01:53.620Z,32.90
2023-01-08T08:04:20.683Z,31.77
2023-01-08T08:06:47.635Z,28.00
2023-01-08T08:09:14.730Z,29.15
2023-01-08T08:11:41.836Z,31.30
2023-01-08T08:14:08.948Z,31.90
2023-01-08T08:16:36.016Z,29.77
2023-01-08T08:19:03.046Z,31.40
2023-01-08T08:21:30.891Z,28.00
2023-01-08T08:23:58.062Z,31.27
2023-01-08T08:26:25.092Z,27.60
2023-01-08T08:28:52.214Z,29.27
2023-01-08T08:31:19.239Z,28.38
2023-01-08T08:33:46.279Z,24.70
2023-01-08T08:36:13.566Z,31.17
2023-01-08T08:38:41.938Z,28.67
2023-01-08T08:41:08.995Z,26.40
2023-01-08T08:43:36.083Z,27.08
2023-01-08T08:46:03.041Z,26.27
2023-01-08T08:48:30.087Z,22.10
2023-01-08T08:50:57.095Z,27.90
2023-01-08T08:53:27.758Z,28.65
2023-01-08T08:55:55.060Z,24.55
2023-01-08T08:58:22.207Z,24.23
2023-01-08T09:00:49.156Z,25.40
2023-01-08T09:03:16.817Z,24.83
2023-01-08T09:05:44.218Z,26.10
2023-01-08T09:08:12.806Z,27.70
2023-01-08T09:10:43.961Z,23.30
2023-01-08T09:13:11.522Z,22.23
2023-01-08T09:15:39.184Z,25.08
2023-01-08T09:18:06.447Z,24.58
2023-01-08T09:20:33.684Z,20.50
2023-01-08T09:23:03.132Z,22.25
2023-01-08T09:25:31.065Z,24.00
2023-01-08T09:28:08.249Z,24.42
2023-01-08T09:30:35.506Z,22.23
2023-01-08T09:33:04.374Z,24.40
2023-01-08T09:35:33.305Z,21.27
2023-01-08T09:38:00.652Z,19.40
2023-01-08T09:41:01.530Z,18.88
2023-01-08T09:43:33.477Z,21.55
2023-01-08T09:46:05.755Z,24.10
2023-01-08T09:48:39.049Z,25.73
2023-01-08T09:51:15.272Z,21.02
2023-01-08T09:53:44.050Z,22.52
2023-01-08T09:56:18.939Z,23.35
2023-01-08T09:58:50.751Z,21.80
2023-01-08T10:01:26.259Z,20.92
2023-01-08T10:04:18.403Z,22.42
2023-01-08T10:07:37.435Z,21.65
2023-01-08T10:10:38.811Z,21.33
2023-01-08T10:13:29.399Z,20.48
2023-01-08T10:16:30.609Z,19.00
2023-01-08T10:19:55.463Z,19.30
2023-01-08T10:22:31.712Z,20.60
2023-01-08T10:25:14.681Z,18.77
2023-01-08T10:28:00.949Z,17.13
2023-01-08T10:30:31.066Z,19.15
2023-01-08T10:33:05.882Z,18.10
2023-01-08T10:39:40.606Z,16.90
2023-01-08T10:42:30.646Z,21.00
2023-01-08T10:46:18.170Z,18.23
2023-01-08T10:48:50.928Z,20.13
2023-01-08T10:51:27.707Z,20.90
2023-01-08T10:54:01.193Z,20.15
2023-01-08T10:56:40.459Z,20.98
2023-01-08T10:59:20.089Z,20.35
2023-01-08T11:01:50.661Z,18.00
2023-01-08T11:04:41.793Z,16.40
2023-01-08T11:07:32.472Z,16.92
2023-01-08T11:11:06.579Z,17.70
2023-01-08T11:13:41.590Z,18.85
2023-01-08T11:16:10.827Z,17.15
2023-01-08T11:18:50.689Z,19.23
2023-01-08T11:21:27.891Z,20.73
2023-01-08T11:24:13.582Z,17.48
2023-01-08T11:26:46.438Z,16.98
2023-01-08T11:29:29.426Z,15.10
2023-01-08T11:32:25.195Z,19.20
2023-01-08T11:34:52.453Z,18.92
2023-01-08T11:37:28.571Z,19.42
2023-01-08T11:39:56.973Z,17.38
2023-01-08T11:43:10.670Z,18.10
2023-01-08T11:46:04.078Z,20.67
2023-01-08T11:49:15.249Z,25.30
2023-01-08T11:52:34.192Z,18.40
2023-01-08T11:55:55.842Z,21.08
2023-01-08T11:58:52.044Z,19.90
2023-01-08T12:02:03.066Z,22.00
2023-01-08T12:05:03.835Z,22.88
2023-01-08T12:08:03.975Z,20.50
2023-01-08T12:10:39.277Z,16.45
2023-01-08T12:13:42.292Z,20.05
2023-01-08T12:19:22.868Z,18.83
2023-01-08T12:22:28.113Z,18.08
2023-01-08T12:25:22.550Z,18.95
2023-01-08T12:28:07.570Z,19.70
2023-01-08T12:30:48.754Z,18.50
2023-01-08T12:33:32.752Z,18.13
2023-01-08T12:36:09.336Z,20.58
2023-01-08T12:38:43.264Z,17.73
2023-01-08T12:41:18.520Z,19.02
2023-01-08T12:44:00.581Z,15.85
2023-01-08T12:46:34.167Z,23.20
2023-01-08T12:49:04.469Z,14.98
2023-01-08T12:51:55.944Z,17.00
2023-01-08T12:54:49.042Z,18.75
2023-01-08T12:58:56.513Z,19.02
2023-01-08T13:02:17.552Z,20.35
2023-01-08T13:05:36.150Z,16.65
2023-01-08T13:08:27.546Z,17.88
2023-01-08T13:10:55.917Z,17.60
2023-01-08T13:14:13.095Z,15.70
2023-01-08T13:16:44.588Z,17.48
2023-01-08T13:19:41.436Z,15.60
2023-01-08T13:22:31.784Z,15.45
2023-01-08T13:25:36.350Z,19.58
2023-01-08T13:31:22.723Z,17.67
2023-01-08T13:33:54.714Z,18.20
2023-01-08T13:36:24.686Z,19.80
2023-01-08T13:39:11.832Z,20.40
2023-01-08T13:41:56.519Z,19.13
2023-01-08T13:44:36.204Z,18.67
2023-01-08T13:47:16.696Z,19.48
2023-01-08T13:49:53.310Z,19.02
2023-01-08T13:52:45.156Z,20.83
2023-01-08T13:55:22.180Z,18.52
2023-01-08T13:57:58.853Z,20.58
2023-01-08T14:00:41.221Z,18.95
2023-01-08T14:06:18.014Z,17.48
2023-01-08T14:08:56.761Z,16.25
2023-01-08T14:11:30.859Z,16.15
2023-01-08T14:13:58.384Z,18.52
2023-01-08T14:16:26.002Z,21.25
2023-01-08T14:18:59.737Z,18.52
2023-01-08T14:21:27.265Z,17.95
2023-01-08T14:23:54.423Z,18.27
2023-01-08T14:26:41.488Z,24.77
2023-01-08T14:29:19.724Z,19.10
2023-01-08T14:31:56.267Z,17.75
2023-01-08T14:34:28.511Z,19.23
2023-01-08T14:36:57.027Z,21.95
2023-01-08T14:39:33.916Z,18.20
2023-01-08T14:42:50.116Z,22.85
2023-01-08T14:45:32.666Z,20.83
2023-01-08T14:48:31.814Z,24.02
2023-01-08T14:51:08.305Z,26.05
2023-01-08T14:53:41.811Z,24.30
2023-01-08T14:56:16.089Z,26.55
2023-01-08T14:58:45.657Z,24.83
2023-01-08T15:01:25.713Z,27.95
2023-01-08T15:04:20.320Z,26.77
2023-01-08T15:06:50.037Z,31.58
2023-01-08T15:09:32.371Z,26.00
2023-01-08T15:12:04.176Z,28.48
2023-01-08T15:14:33.600Z,24.98
2023-01-08T15:17:12.636Z,23.38
2023-01-08T15:19:58.395Z,25.42
2023-01-08T15:22:31.473Z,23.23
2023-01-08T15:25:19.377Z,20.50
2023-01-08T15:28:03.180Z,23.38
2023-01-08T15:30:46.198Z,22.58
2023-01-08T15:33:23.799Z,25.63
2023-01-08T15:35:51.672Z,23.98
2023-01-08T15:41:56.407Z,30.23
2023-01-08T15:44:26.278Z,29.30
2023-01-08T15:46:57.285Z,25.90
2023-01-08T15:49:27.687Z,27.15
2023-01-08T15:51:57.179Z,25.60
2023-01-08T15:54:42.799Z,21.70
2023-01-08T15:58:17.613Z,26.95
2023-01-08T16:01:17.227Z,24.67
2023-01-08T16:04:10.646Z,20.90
2023-01-08T16:06:38.269Z,22.80
2023-01-08T16:09:05.589Z,21.10
2023-01-08T16:11:37.271Z,22.27
2023-01-08T16:14:11.074Z,20.65
2023-01-08T16:16:38.416Z,19.77
2023-01-08T16:19:05.565Z,23.95
2023-01-08T16:25:23.431Z,21.58
2023-01-08T16:28:12.070Z,20.83
2023-01-08T16:34:22.160Z,22.55
2023-01-08T16:37:51.708Z,21.27
2023-01-08T16:45:09.890Z,21.15
2023-01-08T16:49:07.611Z,20.20
2023-01-08T16:51:38.378Z,21.75
2023-01-08T16:54:33.535Z,22.15
2023-01-08T16:57:00.777Z,18.00
2023-01-08T16:59:27.854Z,20.38
2023-01-08T17:01:55.559Z,19.95
2023-01-08T17:17:48.210Z,21.85
2023-01-08T17:20:24.671Z,21.90
2023-01-08T17:23:16.036Z,20.50
2023-01-08T17:25:43.241Z,20.58
2023-01-08T17:28:11.503Z,21.33
2023-01-08T17:30:45.288Z,21.67
2023-01-08T17:33:26.163Z,24.80
2023-01-08T17:35:59.286Z,19.90
2023-01-08T17:38:33.886Z,20.15
2023-01-08T17:44:14.266Z,18.98
2023-01-08T17:46:59.260Z,21.73
2023-01-08T17:49:26.424Z,24.38
2023-01-08T17:51:53.739Z,24.95
2023-01-08T17:54:22.467Z,25.40
2023-01-08T17:56:50.671Z,22.73
2023-01-08T17:59:18.609Z,22.10
2023-01-08T18:01:47.015Z,28.27
2023-01-08T18:04:15.127Z,26.67
2023-01-08T18:06:43.360Z,22.85
2023-01-08T18:09:12.748Z,25.85
2023-01-08T18:11:42.151Z,28.20
2023-01-08T18:14:13.890Z,26.73
2023-01-08T18:16:45.639Z,29.27
2023-01-08T18:19:15.894Z,26.42
2023-01-08T18:21:44.647Z,26.63
2023-01-08T18:24:12.920Z,28.50
2023-01-08T18:26:41.457Z,29.17
2023-01-08T18:29:08.997Z,31.35
2023-01-08T18:31:36.239Z,30.55
2023-01-08T18:34:03.946Z,34.75
2023-01-08T18:36:31.003Z,39.53
2023-01-08T18:38:58.266Z,33.67
2023-01-08T18:41:44.352Z,35.25
2023-01-08T18:44:12.042Z,34.70
2023-01-08T18:46:39.291Z,35.05
2023-01-08T18:49:06.575Z,37.53
2023-01-08T18:51:34.266Z,39.88
2023-01-08T18:54:03.037Z,36.35
2023-01-08T18:56:33.993Z,39.65
2023-01-08T18:59:03.461Z,37.30
2023-01-08T19:01:31.050Z,45.78
2023-01-08T19:03:58.492Z,43.67
2023-01-08T19:06:26.009Z,41.95
2023-01-08T19:08:53.292Z,38.63
2023-01-08T19:11:21.709Z,40.28
2023-01-08T19:13:48.811Z,39.10
2023-01-08T19:16:18.494Z,42.80
2023-01-08T19:18:50.843Z,44.88
2023-01-08T19:21:19.488Z,45.88
2023-01-08T19:23:48.294Z,47.40
2023-01-08T19:26:16.741Z,44.42
2023-01-08T19:28:44.547Z,44.78
2023-01-08T19:31:18.005Z,45.50
2023-01-08T19:33:46.329Z,39.22
2023-01-08T19:36:16.019Z,42.28
2023-01-08T19:38:44.516Z,40.30
2023-01-08T19:41:31.264Z,37.45
2023-01-08T19:43:59.157Z,41.88
2023-01-08T19:46:26.924Z,37.10
2023-01-08T19:48:58.136Z,37.55
2023-01-08T19:51:26.316Z,39.08
2023-01-08T19:53:54.055Z,37.08
2023-01-08T19:56:21.021Z,39.17
2023-01-08T19:58:48.585Z,38.95
2023-01-08T20:01:20.265Z,38.83
2023-01-08T20:03:48.489Z,37.90
2023-01-08T20:06:22.886Z,37.40
2023-01-08T20:08:54.115Z,37.90
2023-01-08T20:11:23.272Z,41.50
2023-01-08T20:13:51.830Z,35.40
2023-01-08T20:16:27.131Z,36.92
2023-01-08T20:19:02.341Z,36.90
2023-01-08T20:21:29.503Z,34.72
2023-01-08T20:24:02.390Z,35.20
2023-01-08T20:26:31.894Z,36.42
2023-01-08T20:28:59.602Z,38.88
2023-01-08T20:31:30.602Z,36.13
2023-01-08T20:33:59.981Z,35.40
2023-01-08T20:36:31.068Z,37.67
2023-01-08T20:39:03.503Z,38.40
2023-01-08T20:43:58.014Z,36.20
2023-01-08T20:46:28.632Z,36.22
2023-01-08T20:48:59.847Z,37.08
2023-01-08T20:51:27.179Z,38.53
2023-01-08T20:53:54.560Z,39.50
2023-01-08T20:56:21.715Z,34.33
2023-01-08T20:58:52.713Z,36.90
2023-01-08T21:01:23.592Z,37.92
2023-01-08T21:03:56.363Z,35.38
2023-01-08T21:06:27.172Z,36.20
2023-01-08T21:08:59.961Z,36.00
2023-01-08T21:11:28.011Z,44.95
2023-01-08T21:13:56.150Z,39.90
2023-01-08T21:16:27.042Z,44.40
2023-01-08T21:18:54.752Z,42.72
2023-01-08T21:21:29.716Z,42.17
2023-01-08T21:23:57.413Z,44.45
2023-01-08T21:26:24.848Z,43.90
2023-01-08T21:28:53.149Z,43.00
2023-01-08T21:35:06.563Z,44.55
2023-01-08T21:37:34.605Z,39.33
2023-01-08T21:47:29.801Z,38.08
2023-01-08T21:50:05.972Z,38.72
2023-01-08T21:53:42.345Z,38.17
2023-01-08T21:56:36.160Z,36.75
2023-01-08T21:59:07.027Z,40.35
2023-01-08T22:02:41.011Z,37.05
2023-01-08T22:15:30.799Z,33.78
2023-01-08T22:17:57.788Z,38.88
2023-01-08T22:20:25.217Z,35.20
2023-01-08T22:22:52.454Z,36.10
2023-01-08T22:25:22.724Z,33.97
2023-01-08T22:27:54.326Z,37.25
2023-01-08T22:30:27.116Z,34.95
2023-01-08T22:34:35.995Z,35.03
2023-01-08T22:37:38.114Z,37.38
2023-01-08T22:40:06.089Z,35.28
2023-01-08T22:42:33.041Z,35.42
2023-01-08T22:45:00.204Z,37.20
2023-01-08T22:47:28.032Z,31.75
2023-01-08T22:49:55.026Z,38.80
2023-01-08T22:52:22.115Z,35.65
2023-01-08T22:54:53.060Z,34.53
2023-01-08T22:57:20.649Z,37.00
2023-01-08T22:59:47.995Z,35.40
2023-01-08T23:02:19.253Z,34.50
2023-01-08T23:04:53.221Z,34.28
2023-01-08T23:07:21.276Z,33.40
2023-01-08T23:09:48.890Z,33.08
2023-01-08T23:12:16.190Z,38.13
2023-01-08T23:14:44.867Z,36.65
2023-01-08T23:17:12.705Z,34.25
2023-01-08T23:20:08.494Z,32.88
2023-01-08T23:22:35.896Z,33.10
2023-01-08T23:25:03.573Z,37.65
2023-01-08T23:27:32.553Z,34.08
2023-01-08T23:29:59.741Z,33.30
2023-01-08T23:32:29.795Z,32.20
2023-01-08T23:34:57.192Z,32.80
2023-01-08T23:37:24.384Z,33.78
2023-01-08T23:39:51.625Z,35.03
2023-01-08T23:42:18.676Z,35.15
2023-01-08T23:44:45.724Z,35.45
2023-01-08T23:47:12.779Z,31.23
2023-01-08T23:49:39.745Z,34.50
2023-01-08T23:52:06.759Z,32.15
2023-01-08T23:54:35.828Z,36.33
